createdAt,value
2019-05-19T00:00:30.501Z,74.03
2019-05-19T00:02:58.953Z,68.20
2019-05-19T00:05:27.355Z,69.10
2019-05-19T00:07:55.773Z,70.00
2019-05-19T00:10:24.280Z,69.10
2019-05-19T00:12:52.725Z,72.37
2019-05-19T00:15:21.184Z,77.87
2019-05-19T00:17:49.607Z,79.13
2019-05-19T00:20:18.011Z,78.67
2019-05-19T00:22:46.419Z,74.23
2019-05-19T00:25:14.926Z,85.90
2019-05-19T00:27:43.361Z,89.40
2019-05-19T00:30:11.757Z,86.27
2019-05-19T00:32:44.735Z,85.67
2019-05-19T00:35:13.269Z,88.00
2019-05-19T00:37:41.752Z,94.73
2019-05-19T00:40:10.150Z,88.93
2019-05-19T00:42:38.633Z,95.17
2019-05-19T00:45:08.265Z,88.83
2019-05-19T00:47:36.737Z,87.53
2019-05-19T00:50:06.661Z,87.93
2019-05-19T00:52:35.068Z,86.97
2019-05-19T00:55:04.314Z,91.13
2019-05-19T00:57:32.721Z,86.70
2019-05-19T01:00:01.328Z,85.27
2019-05-19T01:02:29.721Z,81.93
2019-05-19T01:04:58.130Z,83.53
2019-05-19T01:07:26.651Z,89.47
2019-05-19T01:09:55.132Z,85.43
2019-05-19T01:12:23.620Z,82.17
2019-05-19T01:14:52.039Z,80.73
2019-05-19T01:17:20.448Z,84.60
2019-05-19T01:19:55.928Z,81.63
2019-05-19T01:22:20.555Z,80.83
2019-05-19T01:24:48.982Z,82.43
2019-05-19T01:27:17.374Z,81.27
2019-05-19T01:29:45.893Z,85.53
2019-05-19T01:32:14.323Z,84.77
2019-05-19T01:34:42.736Z,88.07
2019-05-19T01:37:11.186Z,85.37
2019-05-19T01:39:39.579Z,87.27
2019-05-19T01:42:08.072Z,83.30
2019-05-19T01:44:36.464Z,87.23
2019-05-19T01:47:04.904Z,83.53
2019-05-19T01:49:33.296Z,90.20
2019-05-19T01:52:01.712Z,81.90
2019-05-19T01:54:30.153Z,85.40
2019-05-19T01:56:58.580Z,87.10
2019-05-19T01:59:26.981Z,84.03
2019-05-19T02:01:55.380Z,87.30
2019-05-19T02:04:23.984Z,84.40
2019-05-19T02:06:52.361Z,91.43
2019-05-19T02:09:20.788Z,89.73
2019-05-19T02:11:49.237Z,85.37
2019-05-19T02:14:17.704Z,85.50
2019-05-19T02:16:46.140Z,96.77
2019-05-19T02:19:14.539Z,96.40
2019-05-19T02:21:42.959Z,94.70
2019-05-19T02:24:11.406Z,92.57
2019-05-19T02:26:39.794Z,90.27
2019-05-19T02:29:08.179Z,103.43
2019-05-19T02:31:36.682Z,93.00
2019-05-19T02:34:05.088Z,97.07
2019-05-19T02:36:34.437Z,94.97
2019-05-19T02:39:03.215Z,94.53
2019-05-19T02:41:31.792Z,92.63
2019-05-19T02:44:00.218Z,98.83
2019-05-19T02:46:28.616Z,90.20
2019-05-19T02:48:57.043Z,88.10
2019-05-19T02:51:25.450Z,91.23
2019-05-19T02:53:53.939Z,93.53
2019-05-19T02:56:22.333Z,89.23
2019-05-19T02:58:50.755Z,84.67
2019-05-19T03:01:19.161Z,91.23
2019-05-19T03:03:47.716Z,95.20
2019-05-19T03:06:16.157Z,91.10
2019-05-19T03:08:44.562Z,87.13
2019-05-19T03:11:12.984Z,89.47
2019-05-19T03:13:41.377Z,88.70
2019-05-19T03:16:09.788Z,95.53
2019-05-19T03:18:38.264Z,90.70
2019-05-19T03:21:10.848Z,84.40
2019-05-19T03:23:36.729Z,89.30
2019-05-19T03:26:05.142Z,85.53
2019-05-19T03:28:33.536Z,77.27
2019-05-19T03:31:06.228Z,86.83
2019-05-19T03:33:36.250Z,75.60
2019-05-19T03:36:04.627Z,75.90
2019-05-19T03:38:33.039Z,70.40
2019-05-19T03:41:01.425Z,74.90
2019-05-19T03:43:29.812Z,66.93
2019-05-19T03:45:58.232Z,74.87
2019-05-19T03:48:26.649Z,67.90
2019-05-19T03:50:55.102Z,67.33
2019-05-19T03:53:23.522Z,69.90
2019-05-19T03:55:51.936Z,68.47
2019-05-19T03:58:20.344Z,65.67
2019-05-19T04:00:48.766Z,62.23
2019-05-19T04:03:17.167Z,62.40
2019-05-19T04:05:45.559Z,57.33
2019-05-19T04:08:13.957Z,62.10
2019-05-19T04:10:42.390Z,57.00
2019-05-19T04:13:10.906Z,59.97
2019-05-19T04:15:44.398Z,58.90
2019-05-19T04:18:12.931Z,56.50
2019-05-19T04:20:47.449Z,55.23
2019-05-19T04:23:15.846Z,54.20
2019-05-19T04:25:44.237Z,57.70
2019-05-19T04:28:12.678Z,55.37
2019-05-19T04:30:41.064Z,54.17
2019-05-19T04:33:09.494Z,53.43
2019-05-19T04:35:37.912Z,54.27
2019-05-19T04:38:06.325Z,59.27
2019-05-19T04:40:34.743Z,54.27
2019-05-19T04:43:03.162Z,53.20
2019-05-19T04:45:31.568Z,55.03
2019-05-19T04:47:59.986Z,55.20
2019-05-19T04:50:28.386Z,56.23
2019-05-19T04:52:56.792Z,55.83
2019-05-19T04:55:25.245Z,59.77
2019-05-19T04:57:53.731Z,56.93
2019-05-19T05:00:22.127Z,56.70
2019-05-19T05:02:51.289Z,54.07
2019-05-19T05:05:19.672Z,53.50
2019-05-19T05:07:48.097Z,55.47
2019-05-19T05:10:16.540Z,55.87
2019-05-19T05:12:44.955Z,56.37
2019-05-19T05:15:13.383Z,53.00
2019-05-19T05:17:41.881Z,56.20
2019-05-19T05:20:10.915Z,50.33
2019-05-19T05:22:39.266Z,51.33
2019-05-19T05:25:08.067Z,53.13
2019-05-19T05:27:36.496Z,52.17
2019-05-19T05:30:06.694Z,51.47
2019-05-19T05:32:35.118Z,50.97
2019-05-19T05:35:03.982Z,53.97
2019-05-19T05:37:33.380Z,51.87
2019-05-19T05:40:01.777Z,49.67
2019-05-19T05:42:31.937Z,51.60
2019-05-19T05:45:00.236Z,47.77
2019-05-19T05:47:28.683Z,49.57
2019-05-19T05:49:57.122Z,46.40
2019-05-19T05:52:37.607Z,50.00
2019-05-19T05:54:55.562Z,48.87
2019-05-19T05:57:23.999Z,46.70
2019-05-19T05:59:52.459Z,53.00
2019-05-19T06:02:20.835Z,47.97
2019-05-19T06:04:49.272Z,47.00
2019-05-19T06:07:17.752Z,50.93
2019-05-19T06:09:46.134Z,57.57
2019-05-19T06:12:14.571Z,51.53
2019-05-19T06:14:43.271Z,55.60
2019-05-19T06:17:11.661Z,51.23
2019-05-19T06:19:40.052Z,51.83
2019-05-19T06:22:08.457Z,50.60
2019-05-19T06:24:36.872Z,52.80
2019-05-19T06:27:05.292Z,51.40
2019-05-19T06:29:33.721Z,52.07
2019-05-19T06:32:03.752Z,50.30
2019-05-19T06:34:32.247Z,48.27
2019-05-19T06:37:00.633Z,47.43
2019-05-19T06:39:29.045Z,46.97
2019-05-19T06:41:57.533Z,51.27
2019-05-19T06:44:26.020Z,48.00
2019-05-19T06:46:54.445Z,49.47
2019-05-19T06:49:22.872Z,46.10
2019-05-19T06:51:51.291Z,44.27
2019-05-19T06:54:19.682Z,50.17
2019-05-19T06:56:48.506Z,45.90
2019-05-19T06:59:17.008Z,43.40
2019-05-19T07:01:45.376Z,43.40
2019-05-19T07:04:13.788Z,43.13
2019-05-19T07:06:44.781Z,40.23
2019-05-19T07:09:13.610Z,44.73
2019-05-19T07:11:42.019Z,43.40
2019-05-19T07:14:10.449Z,40.87
2019-05-19T07:16:38.844Z,40.20
2019-05-19T07:19:07.420Z,37.73
2019-05-19T07:21:35.780Z,40.63
2019-05-19T07:24:04.184Z,39.00
2019-05-19T07:26:32.603Z,41.00
2019-05-19T07:29:05.002Z,39.93
2019-05-19T07:31:33.327Z,38.63
2019-05-19T07:34:01.756Z,39.33
2019-05-19T07:36:31.064Z,38.63
2019-05-19T07:38:59.475Z,38.57
2019-05-19T07:41:27.978Z,40.50
2019-05-19T07:43:56.378Z,36.87
2019-05-19T07:46:24.776Z,35.27
2019-05-19T07:48:53.260Z,38.20
2019-05-19T07:51:23.315Z,36.33
2019-05-19T07:53:51.777Z,39.00
2019-05-19T07:56:21.202Z,39.73
2019-05-19T07:58:50.264Z,37.40
2019-05-19T08:01:18.748Z,40.90
2019-05-19T08:03:47.135Z,41.53
2019-05-19T08:06:15.589Z,37.20
2019-05-19T08:08:45.693Z,36.23
2019-05-19T08:11:14.176Z,35.73
2019-05-19T08:13:42.584Z,38.63
2019-05-19T08:16:10.974Z,38.73
2019-05-19T08:18:39.410Z,38.57
2019-05-19T08:21:07.793Z,38.00
2019-05-19T08:23:36.215Z,40.30
2019-05-19T08:26:05.271Z,39.10
2019-05-19T08:28:33.604Z,41.93
2019-05-19T08:31:02.035Z,44.37
2019-05-19T08:33:30.458Z,41.90
2019-05-19T08:35:58.840Z,41.37
2019-05-19T08:38:27.225Z,42.87
2019-05-19T08:40:55.654Z,44.23
2019-05-19T08:43:24.081Z,39.77
2019-05-19T08:45:52.521Z,40.27
2019-05-19T08:48:20.892Z,36.90
2019-05-19T08:50:49.277Z,40.53
2019-05-19T08:53:17.765Z,37.07
2019-05-19T08:55:46.166Z,33.17
2019-05-19T08:58:14.628Z,35.40
2019-05-19T09:00:42.973Z,35.27
2019-05-19T09:03:11.438Z,33.70
2019-05-19T09:05:39.796Z,33.73
2019-05-19T09:08:08.251Z,37.63
2019-05-19T09:10:38.258Z,39.60
2019-05-19T09:13:06.750Z,33.27
2019-05-19T09:15:35.174Z,34.83
2019-05-19T09:18:03.570Z,32.50
2019-05-19T09:20:32.075Z,30.77
2019-05-19T09:23:00.488Z,36.67
2019-05-19T09:25:28.873Z,34.13
2019-05-19T09:27:57.289Z,31.23
2019-05-19T09:30:25.688Z,34.97
2019-05-19T09:32:56.815Z,33.77
2019-05-19T09:35:25.156Z,33.77
2019-05-19T09:37:53.593Z,32.47
2019-05-19T09:40:22.008Z,35.03
2019-05-19T09:42:50.345Z,31.67
2019-05-19T09:45:18.751Z,29.27
2019-05-19T09:47:47.167Z,34.03
2019-05-19T09:50:17.219Z,30.93
2019-05-19T09:52:45.594Z,32.17
2019-05-19T09:55:14.076Z,35.17
2019-05-19T09:57:42.495Z,34.60
2019-05-19T10:00:10.913Z,33.13
2019-05-19T10:02:39.307Z,28.97
2019-05-19T10:05:07.746Z,27.93
2019-05-19T10:07:36.146Z,27.60
2019-05-19T10:10:10.156Z,30.93
2019-05-19T10:12:38.573Z,33.80
2019-05-19T10:15:07.223Z,34.13
2019-05-19T10:17:35.644Z,30.57
2019-05-19T10:20:05.760Z,27.43
2019-05-19T10:22:34.216Z,30.87
2019-05-19T10:25:20.347Z,28.33
2019-05-19T10:27:32.649Z,30.23
2019-05-19T10:30:01.144Z,32.20
2019-05-19T10:32:29.578Z,31.43
2019-05-19T10:34:58.009Z,28.90
2019-05-19T10:37:26.379Z,29.20
2019-05-19T10:39:54.981Z,27.93
2019-05-19T10:42:23.450Z,31.20
2019-05-19T10:44:51.833Z,33.03
2019-05-19T10:47:20.990Z,30.53
2019-05-19T10:49:49.379Z,31.43
2019-05-19T10:52:17.906Z,28.63
2019-05-19T10:54:46.284Z,29.30
2019-05-19T10:57:14.696Z,32.57
2019-05-19T10:59:43.211Z,30.60
2019-05-19T11:02:11.642Z,34.80
2019-05-19T11:04:40.074Z,31.13
2019-05-19T11:07:08.448Z,34.63
2019-05-19T11:09:36.858Z,35.70
2019-05-19T11:12:05.248Z,35.10
2019-05-19T11:14:33.663Z,35.00
2019-05-19T11:17:02.047Z,34.27
2019-05-19T11:19:30.476Z,32.40
2019-05-19T11:21:58.869Z,34.03
2019-05-19T11:24:27.255Z,35.77
2019-05-19T11:26:55.664Z,31.43
2019-05-19T11:29:24.080Z,34.67
2019-05-19T11:31:52.456Z,33.40
2019-05-19T11:34:20.881Z,32.17
2019-05-19T11:36:49.276Z,32.27
2019-05-19T11:39:17.665Z,33.10
2019-05-19T11:41:46.082Z,32.67
2019-05-19T11:44:14.483Z,35.00
2019-05-19T11:46:42.966Z,35.60
2019-05-19T11:49:13.424Z,34.53
2019-05-19T11:51:41.893Z,39.17
2019-05-19T11:54:10.337Z,35.40
2019-05-19T11:56:38.714Z,36.60
2019-05-19T11:59:07.114Z,33.40
2019-05-19T12:01:35.502Z,35.37
2019-05-19T12:04:03.919Z,35.37
2019-05-19T12:06:39.491Z,35.30
2019-05-19T12:09:02.436Z,38.87
2019-05-19T12:11:30.868Z,35.00
2019-05-19T12:13:59.391Z,36.27
2019-05-19T12:16:27.809Z,36.77
2019-05-19T12:18:57.600Z,33.10
2019-05-19T12:21:26.118Z,36.17
2019-05-19T12:23:54.530Z,38.63
2019-05-19T12:26:23.814Z,38.63
2019-05-19T12:28:52.516Z,37.27
2019-05-19T12:31:20.867Z,36.37
2019-05-19T12:33:52.053Z,38.07
2019-05-19T12:36:19.315Z,35.67
2019-05-19T12:38:47.733Z,41.37
2019-05-19T12:41:16.131Z,39.30
2019-05-19T12:43:44.533Z,41.07
2019-05-19T12:46:16.460Z,39.90
2019-05-19T12:48:43.085Z,41.50
2019-05-19T12:51:11.572Z,45.47
2019-05-19T12:53:40.101Z,43.40
2019-05-19T12:56:08.693Z,40.27
2019-05-19T12:58:37.525Z,42.10
2019-05-19T13:01:08.107Z,41.07
2019-05-19T13:03:36.878Z,42.30
2019-05-19T13:06:05.259Z,45.60
2019-05-19T13:08:33.673Z,46.03
2019-05-19T13:11:02.098Z,44.37
2019-05-19T13:13:30.593Z,39.57
2019-05-19T13:15:58.994Z,51.00
2019-05-19T13:18:27.386Z,48.17
2019-05-19T13:20:55.795Z,46.80
2019-05-19T13:23:24.182Z,43.40
2019-05-19T13:25:52.597Z,43.70
2019-05-19T13:28:20.983Z,48.30
2019-05-19T13:30:49.431Z,44.00
2019-05-19T13:33:17.850Z,43.50
2019-05-19T13:35:49.257Z,43.20
2019-05-19T13:38:17.656Z,45.23
2019-05-19T13:40:46.069Z,46.13
2019-05-19T13:43:14.459Z,44.40
2019-05-19T13:45:42.884Z,42.13
2019-05-19T13:48:11.386Z,38.80
2019-05-19T13:50:39.777Z,43.50
2019-05-19T13:53:08.255Z,41.67
2019-05-19T13:55:36.690Z,40.80
2019-05-19T13:58:05.055Z,41.70
2019-05-19T14:00:33.445Z,43.43
2019-05-19T14:03:01.833Z,44.57
2019-05-19T14:05:30.359Z,42.63
2019-05-19T14:07:58.787Z,43.53
2019-05-19T14:10:27.214Z,39.60
2019-05-19T14:12:55.659Z,41.43
2019-05-19T14:15:24.078Z,41.30
2019-05-19T14:17:52.654Z,45.33
2019-05-19T14:20:21.071Z,42.30
2019-05-19T14:22:49.487Z,41.10
2019-05-19T14:25:17.889Z,39.83
2019-05-19T14:27:46.295Z,40.03
2019-05-19T14:30:14.708Z,42.57
2019-05-19T14:32:43.127Z,41.57
2019-05-19T14:35:11.537Z,42.03
2019-05-19T14:37:39.940Z,42.17
2019-05-19T14:40:08.412Z,42.33
2019-05-19T14:42:56.527Z,37.27
2019-05-19T14:45:25.086Z,40.97
2019-05-19T14:47:53.536Z,41.37
2019-05-19T14:50:21.949Z,41.27
2019-05-19T14:52:50.373Z,39.70
2019-05-19T14:55:18.941Z,38.67
2019-05-19T14:57:47.444Z,45.90
2019-05-19T15:00:15.892Z,44.77
2019-05-19T15:02:44.326Z,45.97
2019-05-19T15:05:12.702Z,39.30
2019-05-19T15:07:41.128Z,42.17
2019-05-19T15:10:09.565Z,45.43
2019-05-19T15:12:38.001Z,40.53
2019-05-19T15:15:07.010Z,40.37
2019-05-19T15:17:35.384Z,43.13
2019-05-19T15:20:05.634Z,40.20
2019-05-19T15:22:34.016Z,39.03
2019-05-19T15:25:02.454Z,40.93
2019-05-19T15:27:30.840Z,38.10
2019-05-19T15:30:11.839Z,36.17
2019-05-19T15:32:29.301Z,38.00
2019-05-19T15:34:57.714Z,42.63
2019-05-19T15:37:26.134Z,38.73
2019-05-19T15:39:54.511Z,48.37
2019-05-19T15:42:22.897Z,41.23
2019-05-19T15:44:51.317Z,49.93
2019-05-19T15:47:19.810Z,42.53
2019-05-19T15:49:48.210Z,44.03
2019-05-19T15:52:16.592Z,43.87
2019-05-19T15:54:45.018Z,41.40
2019-05-19T15:57:13.462Z,37.97
2019-05-19T15:59:41.851Z,37.47
2019-05-19T16:02:10.326Z,40.20
2019-05-19T16:04:38.784Z,41.73
2019-05-19T16:07:07.264Z,35.87
2019-05-19T16:09:35.669Z,37.17
2019-05-19T16:12:04.048Z,34.93
2019-05-19T16:14:32.523Z,40.57
2019-05-19T16:17:00.867Z,40.40
2019-05-19T16:19:29.251Z,39.50
2019-05-19T16:21:57.676Z,40.67
2019-05-19T16:24:26.071Z,42.53
2019-05-19T16:26:54.465Z,43.60
2019-05-19T16:29:22.893Z,37.17
2019-05-19T16:31:51.266Z,37.87
2019-05-19T16:34:19.713Z,38.77
2019-05-19T16:36:48.118Z,35.00
2019-05-19T16:39:16.529Z,42.00
2019-05-19T16:41:44.983Z,43.07
2019-05-19T16:44:32.817Z,34.67
2019-05-19T16:47:01.207Z,35.00
2019-05-19T16:49:33.001Z,37.43
2019-05-19T16:52:01.396Z,36.43
2019-05-19T16:54:34.122Z,37.90
2019-05-19T16:57:02.608Z,40.10
2019-05-19T16:59:30.941Z,41.23
2019-05-19T17:01:59.365Z,39.07
2019-05-19T17:04:27.825Z,40.83
2019-05-19T17:06:56.246Z,37.17
2019-05-19T17:09:24.650Z,33.93
2019-05-19T17:11:53.072Z,32.77
2019-05-19T17:14:21.553Z,38.93
2019-05-19T17:16:50.023Z,32.60
2019-05-19T17:19:18.455Z,37.70
2019-05-19T17:21:46.930Z,33.23
2019-05-19T17:24:15.356Z,37.67
2019-05-19T17:26:43.781Z,36.40
2019-05-19T17:29:12.185Z,34.40
2019-05-19T17:31:40.602Z,37.23
2019-05-19T17:34:09.024Z,33.23
2019-05-19T17:36:37.468Z,37.47
2019-05-19T17:39:06.547Z,40.60
2019-05-19T17:41:34.955Z,36.37
2019-05-19T17:44:03.361Z,29.17
2019-05-19T17:46:31.887Z,30.47
2019-05-19T17:49:00.319Z,34.67
2019-05-19T17:51:28.728Z,35.13
2019-05-19T17:53:57.121Z,35.87
2019-05-19T17:56:25.630Z,37.97
2019-05-19T17:58:54.016Z,38.63
2019-05-19T18:01:22.684Z,38.97
2019-05-19T18:03:51.077Z,36.93
2019-05-19T18:06:19.476Z,39.67
2019-05-19T18:08:47.888Z,38.93
2019-05-19T18:11:16.277Z,39.13
2019-05-19T18:13:44.771Z,35.97
2019-05-19T18:16:13.136Z,39.63
2019-05-19T18:18:45.511Z,34.30
2019-05-19T18:21:13.937Z,35.47
2019-05-19T18:23:42.324Z,36.33
2019-05-19T18:26:10.739Z,33.90
2019-05-19T18:28:39.310Z,32.17
2019-05-19T18:31:07.801Z,35.33
2019-05-19T18:33:36.185Z,29.53
2019-05-19T18:36:04.627Z,40.80
2019-05-19T18:38:33.058Z,29.73
2019-05-19T18:41:01.420Z,33.77
2019-05-19T18:43:29.856Z,37.67
2019-05-19T18:45:58.264Z,33.77
2019-05-19T18:48:26.679Z,39.80
2019-05-19T18:50:55.089Z,28.17
2019-05-19T18:53:23.563Z,38.80
2019-05-19T18:55:52.176Z,39.50
2019-05-19T18:58:20.584Z,39.60
2019-05-19T19:00:49.053Z,31.03
2019-05-19T19:03:17.460Z,37.60
2019-05-19T19:05:45.858Z,36.80
2019-05-19T19:08:14.296Z,34.00
2019-05-19T19:10:42.698Z,35.20
2019-05-19T19:13:11.133Z,39.80
2019-05-19T19:15:39.617Z,44.97
2019-05-19T19:18:07.996Z,37.93
2019-05-19T19:20:36.424Z,38.93
2019-05-19T19:23:04.885Z,44.13
2019-05-19T19:25:33.278Z,44.40
2019-05-19T19:28:01.756Z,42.00
2019-05-19T19:30:30.148Z,41.43
2019-05-19T19:32:58.589Z,38.33
2019-05-19T19:35:27.001Z,38.37
2019-05-19T19:37:55.432Z,34.23
2019-05-19T19:40:30.850Z,41.53
2019-05-19T19:43:02.310Z,40.67
2019-05-19T19:45:30.683Z,32.73
2019-05-19T19:47:59.072Z,33.33
2019-05-19T19:50:27.512Z,40.60
2019-05-19T19:52:55.928Z,35.87
2019-05-19T19:55:24.481Z,36.43
2019-05-19T19:57:53.026Z,36.07
2019-05-19T20:00:55.813Z,33.40
2019-05-19T20:03:24.319Z,35.83
2019-05-19T20:05:52.836Z,33.03
2019-05-19T20:08:21.236Z,34.47
2019-05-19T20:10:49.657Z,36.30
2019-05-19T20:13:18.091Z,39.10
2019-05-19T20:15:46.570Z,34.07
2019-05-19T20:18:14.996Z,37.33
2019-05-19T20:20:43.388Z,34.87
2019-05-19T20:23:11.855Z,41.60
2019-05-19T20:25:40.345Z,37.63
2019-05-19T20:28:08.737Z,39.07
2019-05-19T20:30:37.215Z,37.97
2019-05-19T20:33:05.602Z,38.27
2019-05-19T20:35:34.079Z,37.50
2019-05-19T20:38:02.553Z,41.33
2019-05-19T20:40:30.967Z,36.47
2019-05-19T20:42:59.431Z,41.60
2019-05-19T20:45:27.986Z,43.83
2019-05-19T20:47:56.395Z,38.93
2019-05-19T20:50:24.830Z,44.07
2019-05-19T20:52:53.272Z,38.30
2019-05-19T20:55:21.713Z,37.90
2019-05-19T20:57:50.124Z,35.17
2019-05-19T21:00:18.570Z,41.63
2019-05-19T21:02:46.964Z,40.17
2019-05-19T21:05:15.632Z,40.17
2019-05-19T21:07:44.104Z,37.70
2019-05-19T21:10:12.673Z,46.80
2019-05-19T21:12:41.084Z,52.03
2019-05-19T21:15:09.501Z,48.47
2019-05-19T21:17:37.953Z,47.73
2019-05-19T21:20:06.837Z,43.67
2019-05-19T21:22:35.244Z,41.73
2019-05-19T21:25:04.509Z,47.33
2019-05-19T21:27:33.002Z,40.63
2019-05-19T21:30:01.426Z,45.13
2019-05-19T21:32:29.859Z,52.30
2019-05-19T21:34:58.231Z,45.27
2019-05-19T21:37:26.636Z,44.23
2019-05-19T21:39:55.063Z,46.70
2019-05-19T21:42:23.716Z,52.33
2019-05-19T21:44:52.125Z,53.23
2019-05-19T21:47:20.982Z,47.07
2019-05-19T21:49:49.351Z,47.80
2019-05-19T21:52:17.769Z,45.13
2019-05-19T21:54:46.157Z,43.67
2019-05-19T21:57:14.623Z,44.13
2019-05-19T21:59:43.010Z,47.17
2019-05-19T22:02:11.427Z,43.23
2019-05-19T22:04:39.858Z,46.60
2019-05-19T22:07:09.918Z,42.60
2019-05-19T22:09:38.401Z,46.13
2019-05-19T22:12:06.822Z,45.37
2019-05-19T22:14:35.310Z,40.30
2019-05-19T22:17:03.713Z,45.27
2019-05-19T22:19:32.125Z,45.80
2019-05-19T22:22:00.570Z,44.67
2019-05-19T22:24:28.999Z,44.83
2019-05-19T22:26:57.413Z,43.47
2019-05-19T22:29:25.788Z,40.00
2019-05-19T22:31:54.205Z,42.90
2019-05-19T22:34:22.599Z,42.20
2019-05-19T22:36:51.082Z,43.97
2019-05-19T22:39:19.468Z,40.53
2019-05-19T22:41:47.856Z,41.43
2019-05-19T22:44:16.267Z,34.87
2019-05-19T22:46:44.683Z,34.80
2019-05-19T22:49:13.121Z,26.10
2019-05-19T22:51:41.484Z,31.40
2019-05-19T22:54:09.900Z,31.53
2019-05-19T22:56:38.307Z,34.40
2019-05-19T22:59:18.773Z,34.27
2019-05-19T23:01:50.737Z,28.87
2019-05-19T23:04:06.891Z,31.03
2019-05-19T23:06:35.292Z,29.27
2019-05-19T23:09:04.716Z,35.43
2019-05-19T23:11:33.133Z,38.93
2019-05-19T23:14:01.533Z,29.80
2019-05-19T23:16:30.020Z,33.23
2019-05-19T23:18:58.476Z,34.20
2019-05-19T23:21:26.883Z,28.00
2019-05-19T23:23:55.268Z,29.60
2019-05-19T23:26:23.716Z,29.63
2019-05-19T23:28:52.112Z,28.83
2019-05-19T23:31:20.528Z,29.83
2019-05-19T23:33:48.938Z,28.90
2019-05-19T23:36:18.000Z,29.90
2019-05-19T23:38:47.229Z,27.60
2019-05-19T23:41:15.656Z,28.13
2019-05-19T23:43:44.030Z,26.47
2019-05-19T23:46:12.439Z,28.60
2019-05-19T23:48:40.854Z,26.77
2019-05-19T23:51:09.329Z,27.40
2019-05-19T23:53:37.731Z,27.87
2019-05-19T23:56:06.412Z,31.63
2019-05-19T23:58:34.797Z,26.33
